sensor_id;sensor_type;location;lat;lon;timestamp;P1;durP1;ratioP1;P2;durP2;ratioP2
82032;SDS011;71595;52.180;4.512;2023-08-01T00:02:06;5.93;;;2.30;;
82032;SDS011;71595;52.180;4.512;2023-08-01T00:04:31;7.85;;;2.53;;
82032;SDS011;71595;52.180;4.512;2023-08-01T00:06:57;5.55;;;2.42;;
82032;SDS011;71595;52.180;4.512;2023-08-01T00:09:22;9.68;;;2.45;;
82032;SDS011;71595;52.180;4.512;2023-08-01T00:11:48;8.32;;;2.92;;
82032;SDS011;71595;52.180;4.512;2023-08-01T00:14:13;6.68;;;2.28;;
82032;SDS011;71595;52.180;4.512;2023-08-01T00:16:38;7.13;;;2.50;;
82032;SDS011;71595;52.180;4.512;2023-08-01T00:19:04;9.65;;;2.90;;
82032;SDS011;71595;52.180;4.512;2023-08-01T00:21:29;10.70;;;2.58;;
82032;SDS011;71595;52.180;4.512;2023-08-01T00:23:56;7.10;;;2.25;;
82032;SDS011;71595;52.180;4.512;2023-08-01T00:26:22;8.40;;;2.70;;
82032;SDS011;71595;52.180;4.512;2023-08-01T00:28:47;8.55;;;2.67;;
82032;SDS011;71595;52.180;4.512;2023-08-01T00:31:19;9.13;;;2.20;;
82032;SDS011;71595;52.180;4.512;2023-08-01T00:33:45;6.97;;;2.42;;
82032;SDS011;71595;52.180;4.512;2023-08-01T00:36:10;6.05;;;2.55;;
82032;SDS011;71595;52.180;4.512;2023-08-01T00:38:36;8.90;;;3.00;;
82032;SDS011;71595;52.180;4.512;2023-08-01T00:41:02;7.95;;;2.50;;
82032;SDS011;71595;52.180;4.512;2023-08-01T00:43:27;5.50;;;2.33;;
82032;SDS011;71595;52.180;4.512;2023-08-01T00:45:53;7.55;;;2.50;;
82032;SDS011;71595;52.180;4.512;2023-08-01T00:48:24;7.05;;;2.90;;
82032;SDS011;71595;52.180;4.512;2023-08-01T00:50:49;10.27;;;2.65;;
82032;SDS011;71595;52.180;4.512;2023-08-01T00:53:15;5.68;;;2.63;;
82032;SDS011;71595;52.180;4.512;2023-08-01T00:55:42;7.95;;;3.00;;
82032;SDS011;71595;52.180;4.512;2023-08-01T00:58:08;6.78;;;2.58;;
82032;SDS011;71595;52.180;4.512;2023-08-01T01:00:34;11.32;;;3.22;;
82032;SDS011;71595;52.180;4.512;2023-08-01T01:02:59;11.07;;;3.35;;
82032;SDS011;71595;52.180;4.512;2023-08-01T01:05:25;8.07;;;3.30;;
82032;SDS011;71595;52.180;4.512;2023-08-01T01:07:53;9.48;;;2.85;;
82032;SDS011;71595;52.180;4.512;2023-08-01T01:10:19;8.90;;;2.45;;
82032;SDS011;71595;52.180;4.512;2023-08-01T01:12:44;7.88;;;2.33;;
82032;SDS011;71595;52.180;4.512;2023-08-01T01:15:10;9.48;;;3.55;;
82032;SDS011;71595;52.180;4.512;2023-08-01T01:17:35;9.15;;;2.90;;
82032;SDS011;71595;52.180;4.512;2023-08-01T01:20:00;7.78;;;2.75;;
82032;SDS011;71595;52.180;4.512;2023-08-01T01:22:26;10.60;;;3.10;;
82032;SDS011;71595;52.180;4.512;2023-08-01T01:24:52;5.45;;;1.98;;
82032;SDS011;71595;52.180;4.512;2023-08-01T01:27:20;5.60;;;1.90;;
82032;SDS011;71595;52.180;4.512;2023-08-01T01:29:47;3.30;;;1.85;;
82032;SDS011;71595;52.180;4.512;2023-08-01T01:32:13;3.85;;;1.20;;
82032;SDS011;71595;52.180;4.512;2023-08-01T01:34:42;5.25;;;1.45;;
82032;SDS011;71595;52.180;4.512;2023-08-01T01:37:09;3.47;;;1.60;;
82032;SDS011;71595;52.180;4.512;2023-08-01T01:39:35;3.28;;;1.20;;
82032;SDS011;71595;52.180;4.512;2023-08-01T01:42:00;5.10;;;1.45;;
82032;SDS011;71595;52.180;4.512;2023-08-01T01:44:26;9.30;;;2.08;;
82032;SDS011;71595;52.180;4.512;2023-08-01T01:46:52;6.53;;;1.85;;
82032;SDS011;71595;52.180;4.512;2023-08-01T01:49:18;8.77;;;1.67;;
82032;SDS011;71595;52.180;4.512;2023-08-01T01:51:43;5.25;;;2.00;;
82032;SDS011;71595;52.180;4.512;2023-08-01T01:54:09;7.18;;;1.90;;
82032;SDS011;71595;52.180;4.512;2023-08-01T01:56:34;8.07;;;2.10;;
82032;SDS011;71595;52.180;4.512;2023-08-01T01:59:00;7.38;;;2.15;;
82032;SDS011;71595;52.180;4.512;2023-08-01T02:01:26;6.03;;;2.00;;
82032;SDS011;71595;52.180;4.512;2023-08-01T02:03:51;8.45;;;2.42;;
82032;SDS011;71595;52.180;4.512;2023-08-01T02:06:17;12.02;;;3.38;;
82032;SDS011;71595;52.180;4.512;2023-08-01T02:08:42;9.88;;;2.80;;
82032;SDS011;71595;52.180;4.512;2023-08-01T02:11:07;7.43;;;2.67;;
82032;SDS011;71595;52.180;4.512;2023-08-01T02:13:33;9.82;;;2.80;;
82032;SDS011;71595;52.180;4.512;2023-08-01T02:15:59;10.20;;;2.67;;
82032;SDS011;71595;52.180;4.512;2023-08-01T02:18:25;10.93;;;3.33;;
82032;SDS011;71595;52.180;4.512;2023-08-01T02:20:50;8.82;;;2.63;;
82032;SDS011;71595;52.180;4.512;2023-08-01T02:23:15;9.68;;;3.17;;
82032;SDS011;71595;52.180;4.512;2023-08-01T02:25:41;12.93;;;2.85;;
82032;SDS011;71595;52.180;4.512;2023-08-01T02:28:07;9.35;;;3.30;;
82032;SDS011;71595;52.180;4.512;2023-08-01T02:30:33;8.18;;;2.95;;
82032;SDS011;71595;52.180;4.512;2023-08-01T02:32:59;8.60;;;3.30;;
82032;SDS011;71595;52.180;4.512;2023-08-01T02:35:25;7.45;;;2.58;;
82032;SDS011;71595;52.180;4.512;2023-08-01T02:37:50;10.88;;;3.45;;
82032;SDS011;71595;52.180;4.512;2023-08-01T02:40:15;15.02;;;3.75;;
82032;SDS011;71595;52.180;4.512;2023-08-01T02:42:41;12.55;;;3.72;;
82032;SDS011;71595;52.180;4.512;2023-08-01T02:45:06;11.75;;;3.15;;
82032;SDS011;71595;52.180;4.512;2023-08-01T02:47:32;9.00;;;2.92;;
82032;SDS011;71595;52.180;4.512;2023-08-01T02:49:57;12.05;;;3.03;;
82032;SDS011;71595;52.180;4.512;2023-08-01T02:52:23;10.85;;;3.33;;
82032;SDS011;71595;52.180;4.512;2023-08-01T02:54:51;9.80;;;3.35;;
82032;SDS011;71595;52.180;4.512;2023-08-01T02:57:16;10.25;;;3.20;;
82032;SDS011;71595;52.180;4.512;2023-08-01T02:59:42;7.07;;;3.00;;
82032;SDS011;71595;52.180;4.512;2023-08-01T03:02:07;12.07;;;3.38;;
82032;SDS011;71595;52.180;4.512;2023-08-01T03:04:33;9.93;;;3.45;;
82032;SDS011;71595;52.180;4.512;2023-08-01T03:06:58;10.20;;;3.53;;
82032;SDS011;71595;52.180;4.512;2023-08-01T03:09:23;9.93;;;3.70;;
82032;SDS011;71595;52.180;4.512;2023-08-01T03:11:49;11.60;;;3.10;;
82032;SDS011;71595;52.180;4.512;2023-08-01T03:14:14;9.68;;;2.83;;
82032;SDS011;71595;52.180;4.512;2023-08-01T03:16:39;10.48;;;2.95;;
82032;SDS011;71595;52.180;4.512;2023-08-01T03:19:05;11.93;;;3.33;;
82032;SDS011;71595;52.180;4.512;2023-08-01T03:21:34;10.75;;;3.35;;
82032;SDS011;71595;52.180;4.512;2023-08-01T03:24:00;12.40;;;3.67;;
82032;SDS011;71595;52.180;4.512;2023-08-01T03:26:32;9.68;;;3.17;;
82032;SDS011;71595;52.180;4.512;2023-08-01T03:28:58;10.80;;;3.35;;
82032;SDS011;71595;52.180;4.512;2023-08-01T03:31:23;13.38;;;3.53;;
82032;SDS011;71595;52.180;4.512;2023-08-01T03:33:48;11.68;;;3.10;;
82032;SDS011;71595;52.180;4.512;2023-08-01T03:36:14;9.75;;;2.95;;
82032;SDS011;71595;52.180;4.512;2023-08-01T03:38:39;10.23;;;3.75;;
82032;SDS011;71595;52.180;4.512;2023-08-01T03:41:05;11.75;;;3.40;;
82032;SDS011;71595;52.180;4.512;2023-08-01T03:43:30;8.88;;;2.80;;
82032;SDS011;71595;52.180;4.512;2023-08-01T03:45:55;8.10;;;2.85;;
82032;SDS011;71595;52.180;4.512;2023-08-01T03:48:21;7.97;;;2.75;;
82032;SDS011;71595;52.180;4.512;2023-08-01T03:50:46;9.18;;;3.10;;
82032;SDS011;71595;52.180;4.512;2023-08-01T03:53:12;8.40;;;3.30;;
82032;SDS011;71595;52.180;4.512;2023-08-01T03:55:37;13.07;;;2.83;;
82032;SDS011;71595;52.180;4.512;2023-08-01T03:58:02;12.48;;;3.13;;
82032;SDS011;71595;52.180;4.512;2023-08-01T04:00:31;8.82;;;3.22;;
82032;SDS011;71595;52.180;4.512;2023-08-01T04:02:59;12.77;;;3.50;;
82032;SDS011;71595;52.180;4.512;2023-08-01T04:05:26;7.82;;;2.72;;
82032;SDS011;71595;52.180;4.512;2023-08-01T04:07:52;10.05;;;3.60;;
82032;SDS011;71595;52.180;4.512;2023-08-01T04:10:19;12.20;;;2.95;;
82032;SDS011;71595;52.180;4.512;2023-08-01T04:12:48;7.80;;;2.63;;
82032;SDS011;71595;52.180;4.512;2023-08-01T04:15:13;7.68;;;2.63;;
82032;SDS011;71595;52.180;4.512;2023-08-01T04:17:39;7.53;;;2.60;;
82032;SDS011;71595;52.180;4.512;2023-08-01T04:20:04;7.82;;;2.28;;
82032;SDS011;71595;52.180;4.512;2023-08-01T04:22:30;11.18;;;2.50;;
82032;SDS011;71595;52.180;4.512;2023-08-01T04:24:55;5.25;;;1.85;;
82032;SDS011;71595;52.180;4.512;2023-08-01T04:27:21;5.38;;;2.70;;
82032;SDS011;71595;52.180;4.512;2023-08-01T04:29:47;8.35;;;3.10;;
82032;SDS011;71595;52.180;4.512;2023-08-01T04:32:13;9.43;;;2.63;;
82032;SDS011;71595;52.180;4.512;2023-08-01T04:34:40;8.02;;;2.88;;
82032;SDS011;71595;52.180;4.512;2023-08-01T04:37:05;8.15;;;2.90;;
82032;SDS011;71595;52.180;4.512;2023-08-01T04:39:31;6.43;;;2.50;;
82032;SDS011;71595;52.180;4.512;2023-08-01T04:41:56;6.47;;;2.42;;
82032;SDS011;71595;52.180;4.512;2023-08-01T04:44:21;10.55;;;2.72;;
82032;SDS011;71595;52.180;4.512;2023-08-01T04:46:47;6.75;;;2.00;;
82032;SDS011;71595;52.180;4.512;2023-08-01T04:49:13;8.73;;;2.60;;
82032;SDS011;71595;52.180;4.512;2023-08-01T04:51:39;7.88;;;2.33;;
82032;SDS011;71595;52.180;4.512;2023-08-01T04:54:04;4.97;;;2.00;;
82032;SDS011;71595;52.180;4.512;2023-08-01T04:56:30;7.80;;;2.47;;
82032;SDS011;71595;52.180;4.512;2023-08-01T04:58:55;7.22;;;2.20;;
82032;SDS011;71595;52.180;4.512;2023-08-01T05:01:20;5.78;;;2.20;;
82032;SDS011;71595;52.180;4.512;2023-08-01T05:03:46;7.88;;;2.60;;
82032;SDS011;71595;52.180;4.512;2023-08-01T05:06:11;12.93;;;2.75;;
82032;SDS011;71595;52.180;4.512;2023-08-01T05:08:36;10.70;;;2.95;;
82032;SDS011;71595;52.180;4.512;2023-08-01T05:11:02;12.38;;;3.33;;
82032;SDS011;71595;52.180;4.512;2023-08-01T05:13:27;7.68;;;2.55;;
82032;SDS011;71595;52.180;4.512;2023-08-01T05:15:53;6.78;;;2.30;;
82032;SDS011;71595;52.180;4.512;2023-08-01T05:18:18;7.53;;;2.50;;
82032;SDS011;71595;52.180;4.512;2023-08-01T05:20:44;10.07;;;2.10;;
82032;SDS011;71595;52.180;4.512;2023-08-01T05:23:09;9.38;;;2.42;;
82032;SDS011;71595;52.180;4.512;2023-08-01T05:25:35;8.30;;;2.22;;
82032;SDS011;71595;52.180;4.512;2023-08-01T05:28:00;6.15;;;2.47;;
82032;SDS011;71595;52.180;4.512;2023-08-01T05:30:25;11.60;;;2.17;;
82032;SDS011;71595;52.180;4.512;2023-08-01T05:32:51;6.78;;;1.70;;
82032;SDS011;71595;52.180;4.512;2023-08-01T05:35:16;10.48;;;2.35;;
82032;SDS011;71595;52.180;4.512;2023-08-01T05:37:42;8.60;;;2.00;;
82032;SDS011;71595;52.180;4.512;2023-08-01T05:40:08;9.13;;;2.35;;
82032;SDS011;71595;52.180;4.512;2023-08-01T05:42:34;6.28;;;2.10;;
82032;SDS011;71595;52.180;4.512;2023-08-01T05:45:00;6.25;;;1.90;;
82032;SDS011;71595;52.180;4.512;2023-08-01T05:47:25;8.07;;;2.30;;
82032;SDS011;71595;52.180;4.512;2023-08-01T05:49:50;7.28;;;2.28;;
82032;SDS011;71595;52.180;4.512;2023-08-01T05:52:19;9.05;;;2.03;;
82032;SDS011;71595;52.180;4.512;2023-08-01T05:54:44;5.65;;;1.80;;
82032;SDS011;71595;52.180;4.512;2023-08-01T05:57:10;9.90;;;2.50;;
82032;SDS011;71595;52.180;4.512;2023-08-01T05:59:35;7.28;;;2.00;;
82032;SDS011;71595;52.180;4.512;2023-08-01T06:02:01;9.93;;;2.53;;
82032;SDS011;71595;52.180;4.512;2023-08-01T06:04:27;6.57;;;2.65;;
82032;SDS011;71595;52.180;4.512;2023-08-01T06:06:53;5.40;;;1.83;;
82032;SDS011;71595;52.180;4.512;2023-08-01T06:09:18;6.50;;;1.88;;
82032;SDS011;71595;52.180;4.512;2023-08-01T06:11:44;6.35;;;2.38;;
82032;SDS011;71595;52.180;4.512;2023-08-01T06:14:09;7.88;;;2.35;;
82032;SDS011;71595;52.180;4.512;2023-08-01T06:16:35;7.75;;;1.95;;
82032;SDS011;71595;52.180;4.512;2023-08-01T06:19:00;7.22;;;2.38;;
82032;SDS011;71595;52.180;4.512;2023-08-01T06:21:26;7.80;;;2.30;;
82032;SDS011;71595;52.180;4.512;2023-08-01T06:23:52;6.10;;;2.20;;
82032;SDS011;71595;52.180;4.512;2023-08-01T06:26:17;7.13;;;2.38;;
82032;SDS011;71595;52.180;4.512;2023-08-01T06:28:42;6.53;;;2.42;;
82032;SDS011;71595;52.180;4.512;2023-08-01T06:31:08;9.75;;;2.35;;
82032;SDS011;71595;52.180;4.512;2023-08-01T06:33:33;10.75;;;2.83;;
82032;SDS011;71595;52.180;4.512;2023-08-01T06:35:59;9.30;;;3.00;;
82032;SDS011;71595;52.180;4.512;2023-08-01T06:38:24;10.60;;;2.72;;
82032;SDS011;71595;52.180;4.512;2023-08-01T06:40:49;5.07;;;2.42;;
82032;SDS011;71595;52.180;4.512;2023-08-01T06:43:15;9.13;;;2.13;;
82032;SDS011;71595;52.180;4.512;2023-08-01T06:45:40;8.77;;;2.53;;
82032;SDS011;71595;52.180;4.512;2023-08-01T06:48:05;6.20;;;2.22;;
82032;SDS011;71595;52.180;4.512;2023-08-01T06:50:31;6.38;;;1.95;;
82032;SDS011;71595;52.180;4.512;2023-08-01T06:52:56;7.90;;;2.13;;
82032;SDS011;71595;52.180;4.512;2023-08-01T06:55:21;9.00;;;2.15;;
82032;SDS011;71595;52.180;4.512;2023-08-01T06:57:47;7.13;;;2.40;;
82032;SDS011;71595;52.180;4.512;2023-08-01T07:00:12;6.25;;;2.28;;
82032;SDS011;71595;52.180;4.512;2023-08-01T07:02:38;8.45;;;2.20;;
82032;SDS011;71595;52.180;4.512;2023-08-01T07:05:03;6.80;;;1.95;;
82032;SDS011;71595;52.180;4.512;2023-08-01T07:07:35;6.40;;;2.53;;
82032;SDS011;71595;52.180;4.512;2023-08-01T07:10:01;7.03;;;1.80;;
82032;SDS011;71595;52.180;4.512;2023-08-01T07:12:26;6.15;;;1.80;;
82032;SDS011;71595;52.180;4.512;2023-08-01T07:14:52;8.40;;;2.20;;
82032;SDS011;71595;52.180;4.512;2023-08-01T07:17:17;8.68;;;2.10;;
82032;SDS011;71595;52.180;4.512;2023-08-01T07:19:43;6.63;;;1.90;;
82032;SDS011;71595;52.180;4.512;2023-08-01T07:22:11;7.75;;;2.20;;
82032;SDS011;71595;52.180;4.512;2023-08-01T07:24:36;5.18;;;2.17;;
82032;SDS011;71595;52.180;4.512;2023-08-01T07:27:02;4.05;;;1.70;;
82032;SDS011;71595;52.180;4.512;2023-08-01T07:29:27;5.65;;;1.80;;
82032;SDS011;71595;52.180;4.512;2023-08-01T07:31:53;7.47;;;1.95;;
82032;SDS011;71595;52.180;4.512;2023-08-01T07:34:18;6.20;;;1.67;;
82032;SDS011;71595;52.180;4.512;2023-08-01T07:36:45;7.07;;;2.08;;
82032;SDS011;71595;52.180;4.512;2023-08-01T07:39:13;5.57;;;1.98;;
82032;SDS011;71595;52.180;4.512;2023-08-01T07:41:39;3.72;;;1.73;;
82032;SDS011;71595;52.180;4.512;2023-08-01T07:44:04;5.32;;;1.70;;
82032;SDS011;71595;52.180;4.512;2023-08-01T07:46:29;4.70;;;2.03;;
82032;SDS011;71595;52.180;4.512;2023-08-01T07:48:55;4.57;;;2.53;;
82032;SDS011;71595;52.180;4.512;2023-08-01T07:51:20;6.57;;;2.00;;
82032;SDS011;71595;52.180;4.512;2023-08-01T07:53:46;6.78;;;2.17;;
82032;SDS011;71595;52.180;4.512;2023-08-01T07:56:11;8.82;;;2.72;;
82032;SDS011;71595;52.180;4.512;2023-08-01T07:58:36;6.95;;;1.80;;
82032;SDS011;71595;52.180;4.512;2023-08-01T08:01:05;8.38;;;2.17;;
82032;SDS011;71595;52.180;4.512;2023-08-01T08:03:31;6.68;;;1.95;;
82032;SDS011;71595;52.180;4.512;2023-08-01T08:05:57;8.45;;;2.08;;
82032;SDS011;71595;52.180;4.512;2023-08-01T08:08:23;8.02;;;2.10;;
82032;SDS011;71595;52.180;4.512;2023-08-01T08:10:48;5.65;;;1.98;;
82032;SDS011;71595;52.180;4.512;2023-08-01T08:13:13;9.35;;;2.70;;
82032;SDS011;71595;52.180;4.512;2023-08-01T08:15:39;6.22;;;2.40;;
82032;SDS011;71595;52.180;4.512;2023-08-01T08:18:04;10.20;;;2.55;;
82032;SDS011;71595;52.180;4.512;2023-08-01T08:20:30;7.07;;;1.95;;
82032;SDS011;71595;52.180;4.512;2023-08-01T08:22:57;7.63;;;2.15;;
82032;SDS011;71595;52.180;4.512;2023-08-01T08:25:22;6.65;;;2.50;;
82032;SDS011;71595;52.180;4.512;2023-08-01T08:27:51;7.60;;;2.50;;
82032;SDS011;71595;52.180;4.512;2023-08-01T08:30:16;5.63;;;1.98;;
82032;SDS011;71595;52.180;4.512;2023-08-01T08:32:42;8.52;;;2.10;;
82032;SDS011;71595;52.180;4.512;2023-08-01T08:35:07;7.22;;;2.40;;
82032;SDS011;71595;52.180;4.512;2023-08-01T08:37:33;5.80;;;2.10;;
82032;SDS011;71595;52.180;4.512;2023-08-01T08:39:58;7.50;;;2.00;;
82032;SDS011;71595;52.180;4.512;2023-08-01T08:42:23;9.77;;;2.13;;
82032;SDS011;71595;52.180;4.512;2023-08-01T08:44:49;8.40;;;2.45;;
82032;SDS011;71595;52.180;4.512;2023-08-01T08:47:19;6.05;;;1.90;;
82032;SDS011;71595;52.180;4.512;2023-08-01T08:49:50;6.70;;;1.88;;
82032;SDS011;71595;52.180;4.512;2023-08-01T08:52:16;6.75;;;1.70;;
82032;SDS011;71595;52.180;4.512;2023-08-01T08:54:43;8.18;;;2.22;;
82032;SDS011;71595;52.180;4.512;2023-08-01T08:57:10;5.30;;;2.05;;
82032;SDS011;71595;52.180;4.512;2023-08-01T08:59:36;8.18;;;2.03;;
82032;SDS011;71595;52.180;4.512;2023-08-01T09:02:02;5.40;;;1.88;;
82032;SDS011;71595;52.180;4.512;2023-08-01T09:04:29;5.70;;;2.20;;
82032;SDS011;71595;52.180;4.512;2023-08-01T09:06:58;5.90;;;1.88;;
82032;SDS011;71595;52.180;4.512;2023-08-01T09:09:26;7.32;;;2.30;;
82032;SDS011;71595;52.180;4.512;2023-08-01T09:11:53;6.18;;;1.83;;
82032;SDS011;71595;52.180;4.512;2023-08-01T09:14:21;7.53;;;1.80;;
82032;SDS011;71595;52.180;4.512;2023-08-01T09:16:47;7.22;;;2.30;;
82032;SDS011;71595;52.180;4.512;2023-08-01T09:19:17;4.78;;;1.83;;
82032;SDS011;71595;52.180;4.512;2023-08-01T09:21:43;6.82;;;3.22;;
82032;SDS011;71595;52.180;4.512;2023-08-01T09:24:10;5.53;;;1.95;;
82032;SDS011;71595;52.180;4.512;2023-08-01T09:26:37;8.82;;;2.10;;
82032;SDS011;71595;52.180;4.512;2023-08-01T09:29:03;5.70;;;2.70;;
82032;SDS011;71595;52.180;4.512;2023-08-01T09:31:30;6.50;;;2.00;;
82032;SDS011;71595;52.180;4.512;2023-08-01T09:33:56;6.82;;;2.55;;
82032;SDS011;71595;52.180;4.512;2023-08-01T09:36:22;8.65;;;2.45;;
82032;SDS011;71595;52.180;4.512;2023-08-01T09:38:48;6.75;;;2.00;;
82032;SDS011;71595;52.180;4.512;2023-08-01T09:41:18;7.80;;;2.13;;
82032;SDS011;71595;52.180;4.512;2023-08-01T09:43:44;4.25;;;1.80;;
82032;SDS011;71595;52.180;4.512;2023-08-01T09:46:11;11.07;;;2.00;;
82032;SDS011;71595;52.180;4.512;2023-08-01T09:48:37;6.93;;;2.53;;
82032;SDS011;71595;52.180;4.512;2023-08-01T09:51:10;4.50;;;1.88;;
82032;SDS011;71595;52.180;4.512;2023-08-01T09:56:14;7.25;;;2.05;;
82032;SDS011;71595;52.180;4.512;2023-08-01T09:58:42;7.78;;;2.38;;
82032;SDS011;71595;52.180;4.512;2023-08-01T10:01:09;9.90;;;2.88;;
82032;SDS011;71595;52.180;4.512;2023-08-01T10:03:35;8.65;;;2.10;;
82032;SDS011;71595;52.180;4.512;2023-08-01T10:06:00;5.95;;;2.00;;
82032;SDS011;71595;52.180;4.512;2023-08-01T10:11:48;6.68;;;1.95;;
82032;SDS011;71595;52.180;4.512;2023-08-01T10:14:16;5.82;;;2.22;;
82032;SDS011;71595;52.180;4.512;2023-08-01T10:16:42;6.95;;;1.98;;
82032;SDS011;71595;52.180;4.512;2023-08-01T10:19:08;4.22;;;1.77;;
82032;SDS011;71595;52.180;4.512;2023-08-01T10:21:34;6.45;;;2.15;;
82032;SDS011;71595;52.180;4.512;2023-08-01T10:24:01;3.67;;;2.05;;
82032;SDS011;71595;52.180;4.512;2023-08-01T10:26:30;4.07;;;1.73;;
82032;SDS011;71595;52.180;4.512;2023-08-01T10:28:55;4.45;;;2.10;;
82032;SDS011;71595;52.180;4.512;2023-08-01T10:31:23;9.93;;;2.33;;
82032;SDS011;71595;52.180;4.512;2023-08-01T10:33:49;9.43;;;2.45;;
82032;SDS011;71595;52.180;4.512;2023-08-01T10:36:18;7.80;;;2.40;;
82032;SDS011;71595;52.180;4.512;2023-08-01T10:38:54;6.30;;;1.88;;
82032;SDS011;71595;52.180;4.512;2023-08-01T10:41:34;4.60;;;1.80;;
82032;SDS011;71595;52.180;4.512;2023-08-01T10:44:11;5.80;;;1.67;;
82032;SDS011;71595;52.180;4.512;2023-08-01T10:46:50;6.18;;;2.00;;
82032;SDS011;71595;52.180;4.512;2023-08-01T10:49:17;6.55;;;1.90;;
82032;SDS011;71595;52.180;4.512;2023-08-01T10:51:44;6.60;;;1.83;;
82032;SDS011;71595;52.180;4.512;2023-08-01T10:54:20;8.05;;;1.92;;
82032;SDS011;71595;52.180;4.512;2023-08-01T10:56:48;7.10;;;2.15;;
82032;SDS011;71595;52.180;4.512;2023-08-01T10:59:15;6.93;;;2.05;;
82032;SDS011;71595;52.180;4.512;2023-08-01T11:01:48;5.03;;;1.80;;
82032;SDS011;71595;52.180;4.512;2023-08-01T11:04:18;7.72;;;2.90;;
82032;SDS011;71595;52.180;4.512;2023-08-01T11:06:48;5.57;;;2.05;;
82032;SDS011;71595;52.180;4.512;2023-08-01T11:09:18;10.48;;;2.25;;
82032;SDS011;71595;52.180;4.512;2023-08-01T11:11:46;5.75;;;1.90;;
82032;SDS011;71595;52.180;4.512;2023-08-01T11:14:15;7.55;;;1.67;;
82032;SDS011;71595;52.180;4.512;2023-08-01T11:16:42;11.50;;;2.13;;
82032;SDS011;71595;52.180;4.512;2023-08-01T11:21:47;6.45;;;2.00;;
82032;SDS011;71595;52.180;4.512;2023-08-01T11:24:13;6.63;;;1.90;;
82032;SDS011;71595;52.180;4.512;2023-08-01T11:26:48;5.93;;;1.92;;
82032;SDS011;71595;52.180;4.512;2023-08-01T11:29:15;4.82;;;2.42;;
82032;SDS011;71595;52.180;4.512;2023-08-01T11:31:51;9.45;;;2.20;;
82032;SDS011;71595;52.180;4.512;2023-08-01T11:34:24;7.35;;;2.08;;
82032;SDS011;71595;52.180;4.512;2023-08-01T11:36:50;4.80;;;1.70;;
82032;SDS011;71595;52.180;4.512;2023-08-01T11:39:16;4.82;;;1.70;;
82032;SDS011;71595;52.180;4.512;2023-08-01T11:41:42;4.10;;;1.60;;
82032;SDS011;71595;52.180;4.512;2023-08-01T11:44:09;5.47;;;1.70;;
82032;SDS011;71595;52.180;4.512;2023-08-01T11:46:36;4.28;;;1.52;;
82032;SDS011;71595;52.180;4.512;2023-08-01T11:49:03;6.22;;;2.15;;
82032;SDS011;71595;52.180;4.512;2023-08-01T11:51:29;8.32;;;1.80;;
82032;SDS011;71595;52.180;4.512;2023-08-01T11:54:01;4.97;;;1.70;;
82032;SDS011;71595;52.180;4.512;2023-08-01T11:56:28;9.23;;;3.63;;
82032;SDS011;71595;52.180;4.512;2023-08-01T11:58:53;7.97;;;2.00;;
82032;SDS011;71595;52.180;4.512;2023-08-01T12:01:19;4.88;;;2.42;;
82032;SDS011;71595;52.180;4.512;2023-08-01T12:03:45;11.45;;;2.10;;
82032;SDS011;71595;52.180;4.512;2023-08-01T12:06:14;9.57;;;2.00;;
82032;SDS011;71595;52.180;4.512;2023-08-01T12:08:41;9.95;;;2.10;;
82032;SDS011;71595;52.180;4.512;2023-08-01T12:11:24;8.50;;;2.05;;
82032;SDS011;71595;52.180;4.512;2023-08-01T12:16:28;4.78;;;1.60;;
82032;SDS011;71595;52.180;4.512;2023-08-01T12:18:54;10.65;;;2.10;;
82032;SDS011;71595;52.180;4.512;2023-08-01T12:21:20;5.22;;;2.08;;
82032;SDS011;71595;52.180;4.512;2023-08-01T12:23:46;7.95;;;2.03;;
82032;SDS011;71595;52.180;4.512;2023-08-01T12:26:11;9.52;;;2.38;;
82032;SDS011;71595;52.180;4.512;2023-08-01T12:28:37;5.55;;;2.20;;
82032;SDS011;71595;52.180;4.512;2023-08-01T12:31:03;5.85;;;1.80;;
82032;SDS011;71595;52.180;4.512;2023-08-01T12:33:29;5.53;;;1.73;;
82032;SDS011;71595;52.180;4.512;2023-08-01T12:35:54;7.47;;;1.75;;
82032;SDS011;71595;52.180;4.512;2023-08-01T12:38:20;9.43;;;2.08;;
82032;SDS011;71595;52.180;4.512;2023-08-01T12:40:47;3.97;;;2.03;;
82032;SDS011;71595;52.180;4.512;2023-08-01T12:43:19;4.93;;;1.83;;
82032;SDS011;71595;52.180;4.512;2023-08-01T12:45:46;6.80;;;1.98;;
82032;SDS011;71595;52.180;4.512;2023-08-01T12:48:11;6.07;;;2.03;;
82032;SDS011;71595;52.180;4.512;2023-08-01T12:50:36;6.45;;;2.03;;
82032;SDS011;71595;52.180;4.512;2023-08-01T12:53:02;8.05;;;1.85;;
82032;SDS011;71595;52.180;4.512;2023-08-01T12:55:27;10.65;;;2.00;;
82032;SDS011;71595;52.180;4.512;2023-08-01T12:57:52;6.78;;;1.77;;
82032;SDS011;71595;52.180;4.512;2023-08-01T13:00:18;7.07;;;1.98;;
82032;SDS011;71595;52.180;4.512;2023-08-01T13:02:43;5.45;;;1.70;;
82032;SDS011;71595;52.180;4.512;2023-08-01T13:05:09;3.85;;;1.45;;
82032;SDS011;71595;52.180;4.512;2023-08-01T13:07:35;5.72;;;1.40;;
82032;SDS011;71595;52.180;4.512;2023-08-01T13:10:01;3.85;;;1.58;;
82032;SDS011;71595;52.180;4.512;2023-08-01T13:12:26;5.53;;;1.73;;
82032;SDS011;71595;52.180;4.512;2023-08-01T13:14:52;9.60;;;1.70;;
82032;SDS011;71595;52.180;4.512;2023-08-01T13:17:17;6.60;;;1.70;;
82032;SDS011;71595;52.180;4.512;2023-08-01T13:19:42;4.80;;;1.50;;
82032;SDS011;71595;52.180;4.512;2023-08-01T13:22:08;7.80;;;1.27;;
82032;SDS011;71595;52.180;4.512;2023-08-01T13:24:34;5.55;;;1.40;;
82032;SDS011;71595;52.180;4.512;2023-08-01T13:26:59;7.25;;;1.42;;
82032;SDS011;71595;52.180;4.512;2023-08-01T13:29:24;6.78;;;1.40;;
82032;SDS011;71595;52.180;4.512;2023-08-01T13:31:50;6.28;;;1.33;;
82032;SDS011;71595;52.180;4.512;2023-08-01T13:34:15;7.88;;;1.67;;
82032;SDS011;71595;52.180;4.512;2023-08-01T13:36:42;5.90;;;2.10;;
82032;SDS011;71595;52.180;4.512;2023-08-01T13:39:07;7.43;;;1.98;;
82032;SDS011;71595;52.180;4.512;2023-08-01T13:41:33;6.15;;;1.77;;
82032;SDS011;71595;52.180;4.512;2023-08-01T13:43:58;6.55;;;2.15;;
82032;SDS011;71595;52.180;4.512;2023-08-01T13:46:24;5.65;;;1.60;;
82032;SDS011;71595;52.180;4.512;2023-08-01T13:48:49;6.93;;;1.48;;
82032;SDS011;71595;52.180;4.512;2023-08-01T13:51:14;5.82;;;2.08;;
82032;SDS011;71595;52.180;4.512;2023-08-01T13:53:40;7.68;;;1.67;;
82032;SDS011;71595;52.180;4.512;2023-08-01T13:56:08;6.28;;;1.80;;
82032;SDS011;71595;52.180;4.512;2023-08-01T13:58:40;9.52;;;1.75;;
82032;SDS011;71595;52.180;4.512;2023-08-01T14:01:06;7.30;;;2.20;;
82032;SDS011;71595;52.180;4.512;2023-08-01T14:03:34;8.70;;;2.03;;
82032;SDS011;71595;52.180;4.512;2023-08-01T14:06:18;10.73;;;2.47;;
82032;SDS011;71595;52.180;4.512;2023-08-01T14:08:43;8.23;;;2.22;;
82032;SDS011;71595;52.180;4.512;2023-08-01T14:11:09;10.75;;;2.10;;
82032;SDS011;71595;52.180;4.512;2023-08-01T14:13:35;9.38;;;2.30;;
82032;SDS011;71595;52.180;4.512;2023-08-01T14:16:01;11.27;;;2.40;;
82032;SDS011;71595;52.180;4.512;2023-08-01T14:18:27;6.63;;;1.95;;
82032;SDS011;71595;52.180;4.512;2023-08-01T14:20:53;6.72;;;2.05;;
82032;SDS011;71595;52.180;4.512;2023-08-01T14:23:19;6.43;;;2.10;;
82032;SDS011;71595;52.180;4.512;2023-08-01T14:25:45;8.55;;;1.98;;
82032;SDS011;71595;52.180;4.512;2023-08-01T14:28:11;9.07;;;2.20;;
82032;SDS011;71595;52.180;4.512;2023-08-01T14:30:37;9.43;;;2.20;;
82032;SDS011;71595;52.180;4.512;2023-08-01T14:33:03;6.75;;;1.80;;
82032;SDS011;71595;52.180;4.512;2023-08-01T14:35:30;6.43;;;1.92;;
82032;SDS011;71595;52.180;4.512;2023-08-01T14:37:56;13.10;;;2.00;;
82032;SDS011;71595;52.180;4.512;2023-08-01T14:40:21;8.23;;;2.13;;
82032;SDS011;71595;52.180;4.512;2023-08-01T14:42:47;7.93;;;3.30;;
82032;SDS011;71595;52.180;4.512;2023-08-01T14:45:13;5.22;;;1.48;;
82032;SDS011;71595;52.180;4.512;2023-08-01T14:47:39;6.55;;;1.30;;
82032;SDS011;71595;52.180;4.512;2023-08-01T14:50:05;6.93;;;1.60;;
82032;SDS011;71595;52.180;4.512;2023-08-01T14:52:31;6.70;;;1.80;;